Time;durP1;ratioP1;P1;durP2;ratioP2;P2;SDS_P1;SDS_P2;PMS_P1;PMS_P2;Temp;Humidity;BMP_temperature;BMP_pressure;BME280_temperature;BME280_humidity;BME280_pressure;Samples;Min_cycle;Max_cycle;Signal;HPM_P1;HPM_P2
2022/03/12 00:00:55;;;;;;;32.38;21.65;;;9.30;48.20;;;;;;4997149;28;20385;-80
2022/03/12 00:03:21;;;;;;;27.58;20.15;;;9.20;48.80;;;;;;5015015;28;20474;-80
2022/03/12 00:05:54;;;;;;;26.92;17.65;;;9.20;48.60;;;;;;5015247;28;20026;-80
2022/03/12 00:08:27;;;;;;;26.00;19.00;;;9.20;48.80;;;;;;5014689;28;20085;-80
2022/03/12 00:10:53;;;;;;;28.48;19.42;;;9.10;48.60;;;;;;5014760;28;20116;-80
2022/03/12 00:13:20;;;;;;;23.55;17.30;;;9.00;49.50;;;;;;5013924;28;20039;-80
2022/03/12 00:15:47;;;;;;;21.67;17.15;;;9.00;48.60;;;;;;4996786;28;20060;-80
2022/03/12 00:18:17;;;;;;;29.80;18.58;;;9.00;48.40;;;;;;4997017;28;20478;-81
2022/03/12 00:20:44;;;;;;;;;;;9.00;48.80;;;;;;5014467;28;20034;-81
2022/03/12 00:23:14;;;;;;;22.25;13.82;;;9.00;48.00;;;;;;5014440;28;19921;-80
2022/03/12 00:25:41;;;;;;;23.55;15.63;;;9.10;47.90;;;;;;4990981;28;20486;-80
2022/03/12 00:28:07;;;;;;;24.65;16.48;;;9.00;47.70;;;;;;4996729;28;20428;-81
2022/03/12 00:30:35;;;;;;;25.08;16.88;;;8.90;48.80;;;;;;5014907;28;20120;-81
2022/03/12 00:33:01;;;;;;;23.15;14.80;;;8.80;48.30;;;;;;4992333;28;20169;-81
2022/03/12 00:35:26;;;;;;;28.17;17.60;;;8.70;48.50;;;;;;5013675;28;20458;-81
2022/03/12 00:37:52;;;;;;;26.23;17.30;;;8.70;48.40;;;;;;5010797;28;20050;-81
2022/03/12 00:40:20;;;;;;;25.42;16.95;;;8.70;48.20;;;;;;5014254;28;20042;-81
2022/03/12 00:42:46;;;;;;;26.70;14.65;;;8.50;48.90;;;;;;5014095;28;20033;-81
2022/03/12 00:45:12;;;;;;;20.85;13.13;;;8.40;47.90;;;;;;5014502;28;20371;-81
2022/03/12 00:47:38;;;;;;;19.42;14.98;;;8.40;47.50;;;;;;5014356;28;20517;-81
2022/03/12 00:50:05;;;;;;;19.23;12.85;;;8.40;47.70;;;;;;5014187;28;20034;-80
2022/03/12 00:52:31;;;;;;;20.95;14.07;;;8.30;47.50;;;;;;4996364;28;20080;-80
2022/03/12 00:54:57;;;;;;;24.00;14.95;;;8.30;47.40;;;;;;5008739;28;20066;-80
2022/03/12 00:57:22;;;;;;;20.60;13.75;;;8.30;47.90;;;;;;5010710;28;20030;-80
2022/03/12 00:59:48;;;;;;;17.83;12.93;;;8.20;47.80;;;;;;5013740;28;20048;-80
2022/03/12 01:02:16;;;;;;;24.80;14.05;;;8.10;48.00;;;;;;4995585;28;20034;-80
2022/03/12 01:04:43;;;;;;;21.48;14.07;;;8.10;48.70;;;;;;5014465;28;20073;-80
2022/03/12 01:07:12;;;;;;;23.13;15.65;;;8.00;48.20;;;;;;4995990;28;20497;-80
2022/03/12 01:09:39;;;;;;;19.23;13.98;;;7.90;48.40;;;;;;4994344;28;20046;-81
2022/03/12 01:12:07;;;;;;;22.17;15.07;;;7.90;48.70;;;;;;4995634;28;20042;-80
2022/03/12 01:14:32;;;;;;;18.92;13.30;;;7.80;49.40;;;;;;5013887;28;20049;-80
2022/03/12 01:16:59;;;;;;;18.70;12.07;;;7.80;48.30;;;;;;4996219;28;20049;-80
2022/03/12 01:19:25;;;;;;;17.73;12.70;;;7.90;48.20;;;;;;5009880;28;20030;-80
2022/03/12 01:21:51;;;;;;;19.65;13.18;;;8.00;48.40;;;;;;5012620;28;20108;-80
2022/03/12 01:24:16;;;;;;;19.88;13.65;;;7.90;48.40;;;;;;5013671;28;20037;-80
2022/03/12 01:26:42;;;;;;;24.65;14.45;;;7.90;47.70;;;;;;5012318;28;20030;-81
2022/03/12 01:29:08;;;;;;;22.10;13.43;;;7.80;48.80;;;;;;5013626;28;20113;-81
2022/03/12 01:31:35;;;;;;;23.83;13.77;;;7.60;49.20;;;;;;5013844;28;20121;-80
2022/03/12 01:34:02;;;;;;;19.42;13.43;;;7.60;49.70;;;;;;5007763;28;20038;-80
2022/03/12 01:36:27;;;;;;;19.60;13.05;;;7.60;49.40;;;;;;4995858;28;20435;-80
2022/03/12 01:38:54;;;;;;;21.40;14.63;;;7.60;49.30;;;;;;5013487;28;20104;-80
2022/03/12 01:41:26;;;;;;;21.60;13.93;;;7.50;49.90;;;;;;5010329;28;20046;-80
2022/03/12 01:43:53;;;;;;;17.45;12.73;;;7.40;49.30;;;;;;4993779;28;20033;-81
2022/03/12 01:46:30;;;;;;;29.50;14.50;;;7.50;49.30;;;;;;5011671;28;20482;-81
2022/03/12 01:48:59;;;;;;;30.23;16.40;;;7.50;49.10;;;;;;5010508;28;20033;-80
2022/03/12 01:51:26;;;;;;;18.48;13.43;;;7.40;49.70;;;;;;4995134;28;20111;-81
2022/03/12 01:53:53;;;;;;;25.85;14.35;;;7.30;49.30;;;;;;5013753;28;20034;-80
2022/03/12 01:56:19;;;;;;;21.17;13.60;;;7.30;49.50;;;;;;4994182;28;20526;-81
2022/03/12 01:58:47;;;;;;;25.67;14.60;;;7.10;49.70;;;;;;4995865;28;20402;-81
2022/03/12 02:01:14;;;;;;;28.92;13.80;;;7.10;50.00;;;;;;4995552;28;20061;-82
2022/03/12 02:03:40;;;;;;;23.80;14.43;;;7.00;50.40;;;;;;5011389;28;20041;-82
2022/03/12 02:06:06;;;;;;;21.30;14.85;;;6.90;50.80;;;;;;5011991;28;20033;-82
2022/03/12 02:08:32;;;;;;;23.23;14.10;;;6.70;51.10;;;;;;5013220;28;20037;-82
2022/03/12 02:10:58;;;;;;;21.10;13.10;;;6.60;51.40;;;;;;5012442;28;20369;-82
2022/03/12 02:13:29;;;;;;;25.15;13.75;;;6.60;51.30;;;;;;4995009;28;20084;-82
2022/03/12 02:16:06;;;;;;;19.70;12.95;;;6.70;51.00;;;;;;4995298;28;20045;-81
2022/03/12 02:18:32;;;;;;;16.95;12.27;;;6.70;50.60;;;;;;5006761;28;20359;-81
2022/03/12 02:20:58;;;;;;;32.72;13.60;;;6.70;50.40;;;;;;5012669;28;20041;-81
2022/03/12 02:23:24;;;;;;;21.80;13.00;;;6.80;50.40;;;;;;5012792;28;20539;-81
2022/03/12 02:25:50;;;;;;;16.90;11.30;;;6.80;49.80;;;;;;5010299;28;20034;-81
2022/03/12 02:28:18;;;;;;;19.13;12.30;;;6.90;49.90;;;;;;4999254;28;20070;-81
2022/03/12 02:30:51;;;;;;;20.30;11.93;;;6.90;49.70;;;;;;4995030;28;20049;-81
2022/03/12 02:33:24;;;;;;;17.92;11.93;;;7.00;48.70;;;;;;5012608;28;20583;-81
2022/03/12 02:35:53;;;;;;;17.38;11.80;;;6.80;48.90;;;;;;5012778;28;20176;-81
2022/03/12 02:38:21;;;;;;;19.40;12.63;;;6.70;49.30;;;;;;5003037;28;20042;-80
2022/03/12 02:40:51;;;;;;;18.13;12.20;;;6.80;48.20;;;;;;5007532;28;20034;-80
2022/03/12 02:43:26;;;;;;;16.13;11.75;;;6.80;48.20;;;;;;5012692;28;20032;-80
2022/03/12 02:46:01;;;;;;;22.70;12.82;;;6.70;48.10;;;;;;4994759;28;20487;-80
2022/03/12 02:48:26;;;;;;;19.67;11.50;;;6.60;48.70;;;;;;5012709;28;20597;-80
2022/03/12 02:50:53;;;;;;;15.75;11.75;;;6.70;48.20;;;;;;5012313;28;20131;-80
2022/03/12 02:53:19;;;;;;;17.23;11.80;;;6.60;48.20;;;;;;5012083;28;20171;-80
2022/03/12 02:55:45;;;;;;;19.90;13.15;;;6.50;49.20;;;;;;4991427;28;20143;-81
2022/03/12 02:58:13;;;;;;;18.38;12.65;;;6.50;48.50;;;;;;5011780;28;20045;-81
2022/03/12 03:00:39;;;;;;;21.48;12.50;;;6.40;48.10;;;;;;4994880;28;20030;-81
2022/03/12 03:03:06;;;;;;;20.30;12.55;;;6.30;48.40;;;;;;4991313;28;20027;-81
2022/03/12 03:05:44;;;;;;;15.48;10.52;;;6.30;48.10;;;;;;5011767;28;20042;-80
2022/03/12 03:08:12;;;;;;;16.98;11.70;;;6.40;47.70;;;;;;4994585;28;20037;-81
2022/03/12 03:10:38;;;;;;;17.58;10.90;;;6.40;48.30;;;;;;5011194;28;20061;-81
2022/03/12 03:13:16;;;;;;;17.52;10.82;;;6.40;48.60;;;;;;5012102;28;20034;-82
2022/03/12 03:16:00;;;;;;;17.60;10.90;;;6.40;47.70;;;;;;5004952;28;20045;-81
2022/03/12 03:18:29;;;;;;;18.40;11.45;;;6.40;47.50;;;;;;5015688;28;20129;-81
2022/03/12 03:20:57;;;;;;;18.63;11.25;;;6.50;47.80;;;;;;5015916;28;20136;-81
2022/03/12 03:23:25;;;;;;;18.48;11.02;;;6.40;47.50;;;;;;5015743;28;20042;-81
2022/03/12 03:25:51;;;;;;;19.38;11.43;;;6.40;47.70;;;;;;5015164;28;20109;-82
2022/03/12 03:28:17;;;;;;;19.73;11.57;;;6.40;46.40;;;;;;5015884;28;20113;-83
2022/03/12 03:30:43;;;;;;;16.20;11.02;;;6.40;46.50;;;;;;5016497;28;20045;-83
2022/03/12 03:33:12;;;;;;;17.77;12.35;;;6.40;47.10;;;;;;5009475;28;20041;-83
2022/03/12 03:35:38;;;;;;;20.20;12.90;;;6.40;46.30;;;;;;5015823;28;20594;-82
2022/03/12 03:38:06;;;;;;;18.20;11.00;;;6.20;47.20;;;;;;5015693;28;20125;-82
2022/03/12 03:40:31;;;;;;;21.70;12.02;;;6.20;46.80;;;;;;5015995;28;20038;-83
2022/03/12 03:42:57;;;;;;;20.45;12.55;;;6.10;47.00;;;;;;5015490;28;20436;-82
2022/03/12 03:45:27;;;;;;;19.77;11.75;;;6.00;47.80;;;;;;4996901;28;20030;-82
2022/03/12 03:47:53;;;;;;;16.75;10.95;;;6.00;47.50;;;;;;4993822;28;20124;-81
2022/03/12 03:50:20;;;;;;;19.00;11.15;;;6.10;46.90;;;;;;5014731;28;20048;-81
2022/03/12 03:52:46;;;;;;;16.48;10.77;;;6.10;45.60;;;;;;5011604;28;20096;-82
2022/03/12 03:55:12;;;;;;;18.80;11.00;;;6.20;46.70;;;;;;4997655;28;20378;-81
2022/03/12 03:57:38;;;;;;;17.77;10.43;;;6.10;46.80;;;;;;4998194;28;20053;-82
2022/03/12 04:00:05;;;;;;;17.60;11.95;;;6.00;47.20;;;;;;5015215;28;20050;-82
2022/03/12 04:02:31;;;;;;;17.73;10.18;;;6.00;46.70;;;;;;5015302;28;20033;-81
2022/03/12 04:04:57;;;;;;;22.80;10.48;;;6.00;46.70;;;;;;4996521;28;20041;-81
2022/03/12 04:07:23;;;;;;;19.13;11.35;;;6.00;46.70;;;;;;5015288;28;20034;-80
2022/03/12 04:09:49;;;;;;;15.75;10.40;;;6.00;46.50;;;;;;5015249;28;20042;-80
2022/03/12 04:12:15;;;;;;;15.57;10.70;;;5.80;46.80;;;;;;4997588;28;20482;-80
2022/03/12 04:14:41;;;;;;;12.63;9.10;;;5.80;46.80;;;;;;5015063;28;20046;-79
2022/03/12 04:17:07;;;;;;;20.88;11.00;;;5.90;45.80;;;;;;5006351;28;20065;-79
2022/03/12 04:19:34;;;;;;;19.67;10.13;;;5.90;45.30;;;;;;5015213;28;20038;-79
2022/03/12 04:22:01;;;;;;;17.33;10.05;;;5.90;44.60;;;;;;5002018;28;20377;-80
2022/03/12 04:24:27;;;;;;;16.15;9.32;;;5.90;44.80;;;;;;5014738;28;20136;-80
2022/03/12 04:26:53;;;;;;;15.65;8.77;;;6.00;43.00;;;;;;5014463;28;20109;-80
2022/03/12 04:29:19;;;;;;;17.17;10.10;;;6.00;43.50;;;;;;5014677;28;20370;-81
2022/03/12 04:31:47;;;;;;;13.82;9.45;;;5.90;43.60;;;;;;5010498;28;20049;-81
2022/03/12 04:34:13;;;;;;;13.63;9.05;;;6.00;43.70;;;;;;5011562;28;20045;-82
2022/03/12 04:36:41;;;;;;;16.38;10.65;;;6.00;43.60;;;;;;5007386;28;20033;-80
2022/03/12 04:39:11;;;;;;;15.55;9.68;;;5.90;44.30;;;;;;5013836;28;20121;-81
2022/03/12 04:41:39;;;;;;;15.00;10.57;;;5.90;44.30;;;;;;5007164;28;20053;-81
2022/03/12 04:44:06;;;;;;;14.00;9.90;;;5.90;45.00;;;;;;5014328;28;20284;-81
2022/03/12 04:46:37;;;;;;;14.88;9.50;;;6.00;44.00;;;;;;5010631;28;20080;-81
2022/03/12 04:49:04;;;;;;;17.40;11.25;;;5.90;44.70;;;;;;5013840;28;20037;-81
2022/03/12 04:51:30;;;;;;;14.13;9.45;;;5.80;44.20;;;;;;5004894;28;20130;-81
2022/03/12 04:54:00;;;;;;;18.52;10.95;;;5.70;44.50;;;;;;5014255;28;20533;-80
2022/03/12 04:56:27;;;;;;;20.15;10.82;;;5.70;43.70;;;;;;5014508;28;20109;-81
2022/03/12 04:58:54;;;;;;;16.55;10.00;;;5.60;44.30;;;;;;5014151;28;20491;-80
2022/03/12 05:01:20;;;;;;;17.02;10.02;;;5.60;44.80;;;;;;5013403;28;20155;-81
2022/03/12 05:03:47;;;;;;;17.35;10.45;;;5.60;44.20;;;;;;5013413;28;20049;-81
2022/03/12 05:06:13;;;;;;;21.27;11.18;;;5.60;45.20;;;;;;5014037;28;20340;-81
2022/03/12 05:08:39;;;;;;;18.60;11.57;;;5.60;44.70;;;;;;5013180;28;20351;-81
2022/03/12 05:11:06;;;;;;;18.15;10.88;;;5.40;45.70;;;;;;5013734;28;20041;-81
2022/03/12 05:13:32;;;;;;;17.80;10.65;;;5.30;46.00;;;;;;5013957;28;20045;-80
2022/03/12 05:16:05;;;;;;;17.50;10.25;;;5.10;47.20;;;;;;5012803;28;20040;-80
2022/03/12 05:18:32;;;;;;;17.58;9.95;;;5.00;46.50;;;;;;5006336;28;20076;-80
2022/03/12 05:20:59;;;;;;;18.65;10.90;;;5.10;47.30;;;;;;5014083;28;20026;-82
2022/03/12 05:23:25;;;;;;;16.77;9.73;;;5.10;46.50;;;;;;5013307;28;20124;-82
2022/03/12 05:25:52;;;;;;;17.98;10.23;;;5.00;46.60;;;;;;5012247;28;20061;-81
2022/03/12 05:28:24;;;;;;;17.63;10.00;;;5.10;47.00;;;;;;5011281;28;20038;-82
2022/03/12 05:30:53;;;;;;;15.18;9.77;;;5.10;46.10;;;;;;5007895;28;20753;-81
2022/03/12 05:33:19;;;;;;;18.33;9.63;;;5.10;46.30;;;;;;5012346;28;20034;-82
2022/03/12 05:35:46;;;;;;;18.02;8.98;;;5.20;45.10;;;;;;5007172;28;20402;-81
2022/03/12 05:38:12;;;;;;;12.88;8.27;;;5.20;45.60;;;;;;5012201;28;20088;-83
2022/03/12 05:40:40;;;;;;;18.73;9.57;;;5.30;44.80;;;;;;5012581;28;20419;-81
2022/03/12 05:43:12;;;;;;;15.68;9.93;;;5.30;44.00;;;;;;5012607;28;20034;-80
2022/03/12 05:45:39;;;;;;;14.15;9.52;;;5.30;43.80;;;;;;5012112;28;20117;-80
2022/03/12 05:48:09;;;;;;;19.38;10.85;;;5.30;44.20;;;;;;5008723;28;20128;-80
2022/03/12 05:50:39;;;;;;;15.38;9.88;;;5.30;44.80;;;;;;5005149;28;20034;-80
2022/03/12 05:53:09;;;;;;;13.55;8.82;;;5.30;44.80;;;;;;5013371;28;20042;-81
2022/03/12 05:55:39;;;;;;;16.33;10.50;;;5.40;44.40;;;;;;5006085;28;20119;-81
2022/03/12 05:58:07;;;;;;;20.15;9.32;;;5.40;44.10;;;;;;5009096;28;20042;-80
2022/03/12 06:00:33;;;;;;;14.80;9.45;;;5.30;44.80;;;;;;5012150;28;20026;-81
2022/03/12 06:03:00;;;;;;;21.92;10.43;;;5.30;44.40;;;;;;5007661;28;20053;-83
2022/03/12 06:05:26;;;;;;;13.35;9.07;;;5.30;44.50;;;;;;5011128;28;20038;-83
2022/03/12 06:07:53;;;;;;;13.10;8.63;;;5.20;45.00;;;;;;5012658;28;20045;-79
2022/03/12 06:10:25;;;;;;;14.50;8.98;;;5.20;45.30;;;;;;5012386;28;20394;-80
2022/03/12 06:12:53;;;;;;;14.93;9.43;;;5.30;45.40;;;;;;5004133;28;20065;-78
2022/03/12 06:15:20;;;;;;;14.05;8.90;;;5.30;45.10;;;;;;5010414;28;20378;-76
2022/03/12 06:17:47;;;;;;;15.35;9.60;;;5.30;45.40;;;;;;5012858;28;20477;-84
2022/03/12 06:20:15;;;;;;;13.23;9.40;;;5.40;46.10;;;;;;5012989;28;20045;-86
2022/03/12 06:22:42;;;;;;;12.35;8.48;;;5.30;44.90;;;;;;5005327;28;20050;-88
2022/03/12 06:25:09;;;;;;;16.73;9.93;;;5.30;45.80;;;;;;5009695;28;20487;-90
2022/03/12 06:27:37;;;;;;;18.67;9.30;;;5.40;45.30;;;;;;4993683;28;20053;-86
2022/03/12 06:30:05;;;;;;;18.08;9.98;;;5.40;45.10;;;;;;5007657;28;20589;-86
2022/03/12 06:32:31;;;;;;;15.18;8.88;;;5.50;44.90;;;;;;5012529;28;20088;-86
2022/03/12 06:34:57;;;;;;;14.70;8.63;;;5.50;44.60;;;;;;5013802;28;20117;-87
2022/03/12 06:37:24;;;;;;;15.05;8.60;;;5.50;44.50;;;;;;5013597;28;20037;-86
2022/03/12 06:39:50;;;;;;;11.90;7.65;;;5.40;44.80;;;;;;5008079;28;20502;-86
2022/03/12 06:42:17;;;;;;;13.80;8.48;;;5.50;44.10;;;;;;5013418;28;20030;-85
2022/03/12 06:44:43;;;;;;;18.63;8.20;;;5.60;44.20;;;;;;5013618;28;20034;-86
2022/03/12 06:47:10;;;;;;;17.40;8.10;;;5.50;44.70;;;;;;5013208;28;20109;-85
2022/03/12 06:49:37;;;;;;;13.52;9.27;;;5.50;44.50;;;;;;5001957;28;20042;-82
2022/03/12 06:52:04;;;;;;;11.30;7.88;;;5.50;44.10;;;;;;5012239;28;20564;-82
2022/03/12 06:54:30;;;;;;;14.20;7.95;;;5.50;44.20;;;;;;5010589;28;20034;-81
2022/03/12 06:56:56;;;;;;;13.85;7.70;;;5.60;43.50;;;;;;5010504;28;20052;-82
2022/03/12 06:59:22;;;;;;;63.65;11.98;;;5.70;43.50;;;;;;5008993;28;20046;-82
2022/03/12 07:01:47;;;;;;;13.10;7.93;;;5.90;44.70;;;;;;5013096;28;20042;-84
2022/03/12 07:04:14;;;;;;;12.90;7.90;;;6.10;42.80;;;;;;5006880;28;20080;-81
2022/03/12 07:06:40;;;;;;;10.75;8.07;;;6.00;41.60;;;;;;5014440;28;20073;-80
2022/03/12 07:09:05;;;;;;;12.50;8.77;;;5.80;41.60;;;;;;5006096;28;20045;-80
2022/03/12 07:11:32;;;;;;;17.60;8.23;;;5.80;42.10;;;;;;5012110;28;20042;-79
2022/03/12 07:13:59;;;;;;;13.43;6.90;;;5.80;42.60;;;;;;5013781;28;20492;-81
2022/03/12 07:16:25;;;;;;;15.75;8.05;;;5.90;43.30;;;;;;5009354;28;20489;-79
2022/03/12 07:18:51;;;;;;;12.95;7.75;;;6.10;43.60;;;;;;5012775;28;20483;-76
2022/03/12 07:21:17;;;;;;;10.85;7.68;;;6.20;41.90;;;;;;4973324;28;1137371;-78
2022/03/12 07:23:43;;;;;;;11.38;7.05;;;6.30;42.20;;;;;;5010364;28;20037;-80
2022/03/12 07:26:09;;;;;;;10.98;6.90;;;6.40;41.70;;;;;;5009720;28;20045;-79
2022/03/12 07:28:35;;;;;;;9.27;7.05;;;6.40;41.70;;;;;;5013786;28;20044;-81
2022/03/12 07:31:01;;;;;;;9.77;6.15;;;6.50;41.40;;;;;;5014413;28;20038;-79
2022/03/12 07:33:28;;;;;;;13.65;6.40;;;6.60;41.70;;;;;;5011649;28;20115;-80
2022/03/12 07:35:54;;;;;;;10.73;6.63;;;6.70;41.20;;;;;;5007481;28;20057;-79
2022/03/12 07:38:20;;;;;;;8.25;5.95;;;6.80;40.50;;;;;;5014000;28;20042;-79
2022/03/12 07:40:46;;;;;;;8.38;5.32;;;6.80;40.10;;;;;;5015027;28;20393;-81
2022/03/12 07:43:12;;;;;;;15.90;7.53;;;7.00;40.60;;;;;;5004105;28;20146;-81
2022/03/12 07:45:38;;;;;;;14.68;6.50;;;7.10;40.00;;;;;;4997618;28;20042;-83
2022/03/12 07:48:05;;;;;;;9.73;6.78;;;7.20;40.00;;;;;;5005882;28;20042;-79
2022/03/12 07:50:31;;;;;;;8.27;6.18;;;7.30;39.50;;;;;;5009708;28;20061;-78
2022/03/12 07:52:57;;;;;;;10.10;6.07;;;7.20;39.70;;;;;;4999545;28;20423;-78
2022/03/12 07:55:23;;;;;;;13.77;7.00;;;7.20;39.90;;;;;;5008414;28;20057;-77
2022/03/12 07:57:49;;;;;;;10.43;6.80;;;7.30;41.10;;;;;;5014795;28;20478;-77
2022/03/12 08:00:16;;;;;;;11.63;6.25;;;7.40;40.30;;;;;;5011680;28;20042;-77
2022/03/12 08:02:47;;;;;;;11.30;6.68;;;7.50;39.80;;;;;;5015015;28;20362;-78
2022/03/12 08:05:16;;;;;;;9.98;7.03;;;7.60;39.50;;;;;;5007239;28;20031;-77
2022/03/12 08:07:41;;;;;;;8.65;6.47;;;7.80;40.30;;;;;;4996039;28;20062;-82
2022/03/12 08:10:09;;;;;;;21.48;6.40;;;7.90;42.70;;;;;;4996187;28;20077;-80
2022/03/12 08:12:35;;;;;;;11.73;6.93;;;8.00;42.10;;;;;;5003252;28;20708;-81
2022/03/12 08:15:05;;;;;;;10.13;6.78;;;8.20;40.60;;;;;;4996509;28;20363;-81
2022/03/12 08:17:31;;;;;;;11.23;6.97;;;8.20;39.30;;;;;;4996303;28;20367;-81
2022/03/12 08:19:57;;;;;;;14.25;8.05;;;8.30;38.90;;;;;;5008290;28;20123;-81
2022/03/12 08:22:23;;;;;;;12.35;6.85;;;8.20;39.50;;;;;;5007496;28;20553;-81
2022/03/12 08:24:49;;;;;;;11.63;6.65;;;8.40;38.50;;;;;;5008074;28;20086;-81
2022/03/12 08:27:15;;;;;;;8.57;5.88;;;8.40;39.50;;;;;;4996107;28;20058;-81
2022/03/12 08:29:43;;;;;;;9.30;6.20;;;8.50;39.90;;;;;;5000931;28;20070;-81
2022/03/12 08:32:10;;;;;;;11.73;6.95;;;8.60;39.60;;;;;;4995931;28;20038;-80
2022/03/12 08:34:36;;;;;;;12.80;7.22;;;8.70;39.50;;;;;;5015004;28;20041;-81
2022/03/12 08:37:04;;;;;;;10.98;6.82;;;8.70;38.40;;;;;;5015866;28;20034;-81
2022/03/12 08:39:29;;;;;;;10.13;6.32;;;8.80;39.60;;;;;;4995140;28;20037;-81
2022/03/12 08:41:55;;;;;;;10.27;6.93;;;8.90;38.00;;;;;;5014684;28;20045;-81
2022/03/12 08:44:21;;;;;;;13.50;7.13;;;8.90;38.00;;;;;;5014966;28;20041;-82
2022/03/12 08:46:47;;;;;;;12.05;6.70;;;9.00;38.70;;;;;;4996894;28;20037;-82
2022/03/12 08:49:14;;;;;;;8.13;6.10;;;9.30;37.70;;;;;;4995267;28;20455;-82
2022/03/12 08:51:41;;;;;;;10.02;6.00;;;9.40;38.00;;;;;;4995866;28;20146;-82
2022/03/12 08:54:08;;;;;;;9.38;6.57;;;9.30;37.70;;;;;;4997179;28;20206;-81
2022/03/12 08:56:34;;;;;;;13.32;6.22;;;9.40;37.20;;;;;;5014001;28;20518;-82
2022/03/12 08:59:00;;;;;;;11.93;6.60;;;9.40;36.80;;;;;;5014065;28;20402;-82
2022/03/12 09:01:26;;;;;;;9.27;6.43;;;9.50;36.20;;;;;;5015349;28;20044;-82
2022/03/12 09:03:52;;;;;;;9.27;6.85;;;9.70;35.10;;;;;;5014936;28;20128;-82
2022/03/12 09:06:18;;;;;;;8.07;6.45;;;9.70;34.20;;;;;;5014438;28;20537;-82
2022/03/12 09:08:45;;;;;;;10.18;6.45;;;9.80;34.40;;;;;;5014076;28;20034;-82
2022/03/12 09:11:16;;;;;;;10.20;5.38;;;9.80;34.80;;;;;;5014472;28;20096;-82
2022/03/12 09:13:42;;;;;;;8.38;6.38;;;9.80;33.30;;;;;;5014295;28;20041;-82
2022/03/12 09:16:08;;;;;;;8.18;5.53;;;9.90;34.10;;;;;;5014272;28;20397;-82
2022/03/12 09:18:34;;;;;;;12.30;5.68;;;10.00;33.40;;;;;;5014647;28;20057;-78
2022/03/12 09:20:59;;;;;;;9.07;5.75;;;10.20;32.60;;;;;;5014385;28;20034;-78
2022/03/12 09:23:25;;;;;;;8.73;5.65;;;10.50;33.20;;;;;;5014295;28;20037;-77
2022/03/12 09:25:51;;;;;;;10.30;6.65;;;10.50;32.20;;;;;;5004575;28;20034;-78
2022/03/12 09:28:19;;;;;;;8.45;5.63;;;10.60;31.80;;;;;;5013272;28;20045;-78
2022/03/12 09:30:50;;;;;;;9.90;5.88;;;10.70;30.80;;;;;;5014327;28;20126;-78
2022/03/12 09:33:17;;;;;;;7.25;5.45;;;10.90;31.10;;;;;;5028109;28;20036;-77
2022/03/12 09:35:44;;;;;;;7.25;5.53;;;11.00;32.00;;;;;;5033935;28;20114;-78
2022/03/12 09:38:10;;;;;;;8.13;5.63;;;11.20;32.30;;;;;;4993392;28;20030;-84
2022/03/12 09:40:36;;;;;;;11.45;5.53;;;11.30;32.90;;;;;;5010881;28;20040;-78
2022/03/12 09:43:02;;;;;;;7.45;5.22;;;11.40;30.70;;;;;;4993835;28;20038;-78
2022/03/12 09:45:28;;;;;;;8.63;5.70;;;11.60;31.20;;;;;;4984541;28;20036;-79
2022/03/12 09:47:54;;;;;;;8.10;6.05;;;11.70;32.60;;;;;;5013503;28;20461;-79
2022/03/12 09:50:21;;;;;;;10.40;7.35;;;11.80;29.90;;;;;;5013048;28;20486;-80
2022/03/12 09:52:48;;;;;;;7.35;5.65;;;11.90;31.20;;;;;;5013390;28;20599;-79
2022/03/12 09:55:15;;;;;;;11.88;6.32;;;11.90;32.30;;;;;;5010744;28;20527;-79
2022/03/12 09:57:41;;;;;;;11.35;6.70;;;12.10;31.30;;;;;;4999059;28;20545;-79
2022/03/12 10:00:08;;;;;;;10.20;6.32;;;12.10;31.40;;;;;;4989561;28;20074;-79
2022/03/12 10:02:34;;;;;;;8.23;6.05;;;12.10;30.50;;;;;;5009020;28;20030;-80
2022/03/12 10:04:59;;;;;;;9.63;6.60;;;12.30;30.20;;;;;;5008498;28;20561;-78
2022/03/12 10:07:26;;;;;;;12.57;6.40;;;12.40;29.10;;;;;;5010738;28;20054;-78
2022/03/12 10:09:51;;;;;;;7.97;5.45;;;12.60;29.60;;;;;;5009029;28;20042;-82
2022/03/12 10:12:19;;;;;;;7.57;6.10;;;12.50;28.10;;;;;;5007381;28;20041;-82
2022/03/12 10:14:48;;;;;;;11.10;6.45;;;12.50;29.00;;;;;;4999233;28;20030;-83
2022/03/12 10:17:14;;;;;;;8.35;6.45;;;12.50;27.30;;;;;;5005607;28;20128;-82
2022/03/12 10:19:39;;;;;;;8.20;5.63;;;12.50;28.00;;;;;;5007896;28;20072;-82
2022/03/12 10:22:09;;;;;;;9.27;5.93;;;12.60;28.70;;;;;;4997860;28;20451;-82
2022/03/12 10:24:35;;;;;;;7.35;6.30;;;12.70;27.90;;;;;;5003110;28;20089;-82
2022/03/12 10:27:03;;;;;;;9.20;5.78;;;13.00;28.20;;;;;;5004633;28;20041;-82
2022/03/12 10:29:28;;;;;;;10.23;5.93;;;13.20;29.30;;;;;;5012356;28;20427;-83
2022/03/12 10:31:54;;;;;;;7.90;5.85;;;13.40;26.90;;;;;;5012742;28;20117;-84
2022/03/12 10:34:25;;;;;;;7.20;5.25;;;13.50;27.30;;;;;;5012610;28;20034;-83
2022/03/12 10:36:53;;;;;;;7.85;5.50;;;13.80;28.10;;;;;;5000848;28;20042;-82
2022/03/12 10:39:33;;;;;;;6.95;4.97;;;13.90;27.60;;;;;;5009590;28;20066;-83
2022/03/12 10:42:04;;;;;;;9.73;6.13;;;14.20;27.20;;;;;;4998922;28;20030;-83
2022/03/12 10:44:39;;;;;;;7.72;5.75;;;14.20;27.50;;;;;;4988700;28;20034;-82
2022/03/12 10:47:24;;;;;;;7.45;5.68;;;14.30;26.50;;;;;;5000609;28;20037;-83
2022/03/12 10:49:59;;;;;;;7.32;6.32;;;14.30;26.40;;;;;;4997183;28;20050;-81
2022/03/12 10:52:34;;;;;;;9.25;5.60;;;14.20;26.60;;;;;;4995743;28;20140;-80
2022/03/12 10:55:19;;;;;;;7.47;6.32;;;14.50;33.50;;;;;;5004491;28;20038;-79
2022/03/12 10:57:56;;;;;;;11.15;6.35;;;14.60;27.70;;;;;;5003868;28;20514;-81
2022/03/12 11:00:23;;;;;;;10.98;6.70;;;14.90;30.00;;;;;;4995879;28;20466;-84
2022/03/12 11:03:00;;;;;;;10.02;6.28;;;15.10;36.30;;;;;;5012680;28;20037;-83
2022/03/12 11:05:35;;;;;;;9.25;5.95;;;15.40;29.90;;;;;;5012268;28;20038;-83
2022/03/12 11:08:13;;;;;;;7.47;6.38;;;15.50;27.20;;;;;;5007332;28;20022;-84
2022/03/12 11:10:46;;;;;;;10.23;6.88;;;15.60;27.00;;;;;;5000416;28;20034;-83
2022/03/12 11:13:25;;;;;;;9.98;6.80;;;15.60;26.40;;;;;;5009918;28;20052;-84
2022/03/12 11:16:14;;;;;;;9.55;7.30;;;15.50;25.40;;;;;;4978381;28;20575;-83
2022/03/12 11:18:55;;;;;;;9.30;6.65;;;15.60;25.30;;;;;;4987910;28;20049;-83
2022/03/12 11:21:52;;;;;;;12.27;7.05;;;15.40;26.00;;;;;;5005781;28;20039;-83
2022/03/12 11:24:25;;;;;;;6.93;5.72;;;15.30;25.20;;;;;;4999522;28;20489;-84
2022/03/12 11:27:03;;;;;;;10.75;6.90;;;15.00;25.90;;;;;;4996611;28;20045;-84
2022/03/12 11:29:30;;;;;;;14.40;7.32;;;15.10;25.70;;;;;;5010561;28;20042;-84
2022/03/12 11:32:00;;;;;;;9.77;6.40;;;15.10;25.30;;;;;;4989772;28;20462;-83
2022/03/12 11:34:34;;;;;;;7.18;6.07;;;15.00;25.70;;;;;;5001278;28;20179;-84
2022/03/12 11:37:07;;;;;;;11.48;7.13;;;15.30;26.20;;;;;;5007436;28;20493;-83
2022/03/12 11:39:42;;;;;;;7.63;6.35;;;15.60;24.70;;;;;;4992282;28;20390;-84
2022/03/12 11:42:14;;;;;;;8.43;6.32;;;15.70;24.30;;;;;;5016219;28;20359;-84
2022/03/12 11:44:41;;;;;;;8.07;6.15;;;16.00;25.60;;;;;;5006005;28;20042;-84
2022/03/12 11:47:08;;;;;;;8.77;6.32;;;16.40;24.00;;;;;;5015260;28;20030;-83
2022/03/12 11:49:34;;;;;;;8.35;6.40;;;16.60;24.40;;;;;;5015853;28;20084;-84
2022/03/12 11:52:04;;;;;;;8.32;6.57;;;16.90;22.90;;;;;;5014509;28;20033;-84
2022/03/12 11:54:30;;;;;;;8.20;6.82;;;17.30;23.50;;;;;;4983574;28;20061;-82
2022/03/12 11:56:57;;;;;;;10.52;5.85;;;17.90;23.40;;;;;;4988244;28;20543;-83
2022/03/12 11:59:24;;;;;;;11.70;7.28;;;18.30;23.10;;;;;;4987509;28;20034;-82
2022/03/12 12:02:17;;;;;;;12.13;6.43;;;18.60;21.70;;;;;;4992018;28;20034;-83
2022/03/12 12:04:43;;;;;;;9.25;6.72;;;18.70;22.90;;;;;;5009349;28;20030;-84
2022/03/12 12:07:10;;;;;;;9.20;6.35;;;19.10;22.90;;;;;;5009183;28;20034;-84
2022/03/12 12:09:35;;;;;;;12.10;6.20;;;19.50;23.40;;;;;;5008022;28;20046;-74
2022/03/12 12:12:11;;;;;;;7.95;5.53;;;19.70;23.90;;;;;;5012919;28;20049;-75
2022/03/12 12:14:37;;;;;;;10.50;5.80;;;19.90;21.80;;;;;;5004244;28;20181;-75
2022/03/12 12:17:04;;;;;;;14.88;6.97;;;19.90;21.80;;;;;;5011675;28;20053;-75
2022/03/12 12:19:30;;;;;;;8.43;6.45;;;19.80;21.80;;;;;;4995005;28;20099;-75
2022/03/12 12:21:56;;;;;;;10.00;6.00;;;20.30;21.80;;;;;;5003278;28;20046;-75
2022/03/12 12:24:28;;;;;;;7.65;5.53;;;20.30;23.20;;;;;;4986703;28;20068;-75
2022/03/12 12:27:00;;;;;;;6.80;5.63;;;20.10;21.30;;;;;;5007657;28;20037;-74
2022/03/12 12:29:41;;;;;;;9.30;5.82;;;20.10;21.30;;;;;;4995987;28;20037;-74
2022/03/12 12:32:11;;;;;;;10.30;5.93;;;20.10;20.10;;;;;;5015219;28;20101;-75
2022/03/12 12:35:04;;;;;;;8.52;6.03;;;19.80;21.70;;;;;;5014885;28;20092;-75
2022/03/12 12:37:46;;;;;;;7.35;5.95;;;19.80;21.80;;;;;;5012868;28;20041;-75
2022/03/12 12:40:52;;;;;;;9.77;6.30;;;19.50;21.30;;;;;;4983949;28;20089;-75
2022/03/12 12:43:23;;;;;;;9.45;5.55;;;19.70;20.80;;;;;;4934561;29;20492;-75
2022/03/12 12:45:55;;;;;;;9.70;5.63;;;19.60;21.80;;;;;;4933604;29;20087;-75
2022/03/12 12:48:31;;;;;;;20.63;6.40;;;19.50;22.50;;;;;;4979487;28;20046;-75